createdAt,value
2022-11-05T00:00:02.429Z,8.80
2022-11-05T00:05:44.264Z,8.78
2022-11-05T00:10:47.345Z,8.78
2022-11-05T00:16:08.824Z,8.82
2022-11-05T00:21:29.958Z,8.82
2022-11-05T00:26:32.631Z,8.79
2022-11-05T00:31:35.541Z,8.78
2022-11-05T00:36:38.240Z,8.76
2022-11-05T00:41:41.041Z,8.72
2022-11-05T00:46:43.715Z,8.66
2022-11-05T00:51:46.439Z,8.59
2022-11-05T00:56:49.240Z,8.52
2022-11-05T01:01:52.005Z,8.48
2022-11-05T01:06:55.545Z,8.47
2022-11-05T01:11:58.212Z,8.44
2022-11-05T01:17:00.944Z,8.39
2022-11-05T01:22:03.662Z,8.35
2022-11-05T01:27:06.547Z,8.33
2022-11-05T01:32:09.362Z,8.29
2022-11-05T01:37:12.061Z,8.26
2022-11-05T01:42:20.383Z,8.26
2022-11-05T01:47:28.199Z,8.28
2022-11-05T01:52:35.526Z,8.30
2022-11-05T01:57:38.267Z,8.32
2022-11-05T02:02:41.063Z,8.32
2022-11-05T02:07:47.189Z,8.27
2022-11-05T02:12:49.893Z,8.25
2022-11-05T02:18:20.947Z,8.24
2022-11-05T02:23:26.405Z,8.23
2022-11-05T02:28:47.282Z,8.22
2022-11-05T02:33:59.064Z,8.20
2022-11-05T02:39:48.141Z,8.21
2022-11-05T02:45:10.556Z,8.22
2022-11-05T02:51:00.337Z,8.22
2022-11-05T02:56:09.669Z,8.20
2022-11-05T03:01:13.072Z,8.16
2022-11-05T03:06:23.380Z,8.17
2022-11-05T03:11:33.226Z,8.17
2022-11-05T03:16:42.265Z,8.15
2022-11-05T03:21:50.798Z,8.14
2022-11-05T03:27:02.508Z,8.14
2022-11-05T03:32:08.126Z,8.15
2022-11-05T03:37:11.690Z,8.14
2022-11-05T03:42:18.525Z,8.11
2022-11-05T03:47:30.009Z,8.09
2022-11-05T03:52:40.559Z,8.09
2022-11-05T03:57:49.743Z,8.09
2022-11-05T04:02:52.736Z,8.05
2022-11-05T04:08:14.683Z,8.00
2022-11-05T04:13:26.926Z,8.00
2022-11-05T04:18:29.636Z,7.99
2022-11-05T04:23:51.160Z,7.95
2022-11-05T04:29:12.834Z,7.92
2022-11-05T04:34:16.629Z,7.89
2022-11-05T04:39:20.868Z,7.89
2022-11-05T04:44:23.667Z,7.88
2022-11-05T04:49:26.340Z,7.86
2022-11-05T04:54:29.055Z,7.87
2022-11-05T04:59:31.762Z,7.85
2022-11-05T05:04:34.445Z,7.82
2022-11-05T05:09:37.160Z,7.80
2022-11-05T05:14:39.903Z,7.80
2022-11-05T05:20:01.453Z,7.83
2022-11-05T05:25:04.804Z,7.83
2022-11-05T05:30:08.730Z,7.85
2022-11-05T05:35:12.168Z,7.88
2022-11-05T05:40:14.953Z,7.89
2022-11-05T05:45:17.650Z,7.93
2022-11-05T05:50:20.350Z,7.95
2022-11-05T05:55:23.129Z,7.97
2022-11-05T06:00:25.877Z,8.00
2022-11-05T06:05:28.660Z,8.04
2022-11-05T06:10:31.590Z,8.08
2022-11-05T06:15:36.038Z,8.10
2022-11-05T06:20:39.066Z,8.12
2022-11-05T06:25:41.755Z,8.14
2022-11-05T06:30:50.760Z,8.15
2022-11-05T06:35:54.375Z,8.17
2022-11-05T06:41:04.570Z,8.20
2022-11-05T06:46:12.315Z,8.25
2022-11-05T06:51:15.597Z,8.25
2022-11-05T06:56:18.375Z,8.29
2022-11-05T07:01:21.484Z,8.34
2022-11-05T07:06:24.323Z,8.35
2022-11-05T07:11:26.971Z,8.36
2022-11-05T07:16:29.881Z,8.39
2022-11-05T07:21:32.549Z,8.40
2022-11-05T07:26:35.396Z,8.40
2022-11-05T07:31:38.093Z,8.41
2022-11-05T07:36:40.898Z,8.44
2022-11-05T07:41:43.594Z,8.46
2022-11-05T07:46:46.388Z,8.47
2022-11-05T07:51:49.095Z,8.49
2022-11-05T07:56:51.835Z,8.50
2022-11-05T08:01:54.704Z,8.51
2022-11-05T08:06:57.702Z,8.53
2022-11-05T08:12:03.070Z,8.55
2022-11-05T08:17:06.173Z,8.57
2022-11-05T08:22:08.976Z,8.59
2022-11-05T08:27:11.688Z,8.60
2022-11-05T08:32:15.092Z,8.62
2022-11-05T08:37:17.988Z,8.65
2022-11-05T08:42:20.799Z,8.67
2022-11-05T08:47:23.802Z,8.69
2022-11-05T08:52:26.481Z,8.70
2022-11-05T08:57:29.188Z,8.72
2022-11-05T09:02:31.937Z,8.73
2022-11-05T09:07:34.703Z,8.75
2022-11-05T09:12:37.604Z,8.78
2022-11-05T09:17:41.033Z,8.83
2022-11-05T09:22:43.819Z,8.89
2022-11-05T09:27:46.504Z,8.94
2022-11-05T09:32:49.321Z,8.98
2022-11-05T09:37:55.546Z,9.00
2022-11-05T09:43:02.138Z,9.01
2022-11-05T09:48:15.863Z,9.05
2022-11-05T09:53:20.331Z,9.08
2022-11-05T09:58:35.383Z,9.10
2022-11-05T10:03:44.806Z,9.12
2022-11-05T10:08:52.806Z,9.17
2022-11-05T10:14:12.663Z,9.19
2022-11-05T10:19:25.625Z,9.22
2022-11-05T10:24:28.536Z,9.32
2022-11-05T10:29:34.546Z,9.37
2022-11-05T10:34:39.636Z,9.43
2022-11-05T10:39:42.438Z,9.53
2022-11-05T10:44:55.125Z,9.59
2022-11-05T10:50:01.970Z,9.63
2022-11-05T10:55:16.751Z,9.63
2022-11-05T11:00:21.864Z,9.65
2022-11-05T11:05:33.662Z,9.68
2022-11-05T11:10:43.058Z,9.71
2022-11-05T11:15:45.769Z,9.67
2022-11-05T11:20:48.470Z,9.69
2022-11-05T11:26:00.929Z,9.69
2022-11-05T11:31:14.238Z,9.79
2022-11-05T11:36:19.700Z,9.89
2022-11-05T11:41:30.165Z,9.94
2022-11-05T11:46:35.384Z,9.99
2022-11-05T11:51:49.449Z,10.02
2022-11-05T11:56:52.773Z,10.08
2022-11-05T12:02:17.935Z,10.16
2022-11-05T12:08:13.390Z,10.21
2022-11-05T12:13:18.940Z,10.30
2022-11-05T12:18:59.151Z,10.38
2022-11-05T12:24:34.376Z,10.39
2022-11-05T12:30:11.910Z,10.40
2022-11-05T12:35:32.865Z,10.39
2022-11-05T12:40:38.404Z,10.39
2022-11-05T12:45:51.756Z,10.35
2022-11-05T12:51:36.139Z,10.28
2022-11-05T12:56:50.019Z,10.26
2022-11-05T13:02:06.273Z,10.20
2022-11-05T13:07:13.765Z,10.17
2022-11-05T13:12:20.825Z,10.15
2022-11-05T13:17:54.052Z,10.16
2022-11-05T13:23:40.039Z,10.20
2022-11-05T13:28:54.116Z,10.20
2022-11-05T13:33:57.754Z,10.18
2022-11-05T13:39:13.372Z,10.17
2022-11-05T13:44:44.133Z,10.17
2022-11-05T13:50:22.211Z,10.22
2022-11-05T13:55:33.984Z,10.22
2022-11-05T14:00:48.921Z,10.19
2022-11-05T14:06:04.116Z,10.20
2022-11-05T14:11:21.349Z,10.20
2022-11-05T14:16:29.581Z,10.19
2022-11-05T14:21:47.433Z,10.21
2022-11-05T14:27:02.426Z,10.24
2022-11-05T14:32:26.218Z,10.23
2022-11-05T14:37:50.625Z,10.19
2022-11-05T14:43:03.008Z,10.16
2022-11-05T14:48:23.550Z,10.14
2022-11-05T14:53:39.339Z,10.07
2022-11-05T14:58:43.945Z,10.02
2022-11-05T15:04:16.481Z,10.01
2022-11-05T15:09:29.229Z,10.00
2022-11-05T15:14:36.829Z,9.99
2022-11-05T15:19:41.437Z,10.01
2022-11-05T15:24:44.158Z,9.99
2022-11-05T15:29:46.996Z,9.96
2022-11-05T15:34:54.753Z,9.95
2022-11-05T15:39:57.612Z,9.94
2022-11-05T15:45:00.435Z,9.91
2022-11-05T15:50:14.644Z,9.87
2022-11-05T15:55:22.736Z,9.89
2022-11-05T16:00:28.282Z,9.89
2022-11-05T16:05:34.369Z,9.87
2022-11-05T16:10:38.806Z,9.87
2022-11-05T16:15:53.893Z,9.88
2022-11-05T16:21:08.175Z,9.88
2022-11-05T16:32:05.696Z,9.76
2022-11-05T16:37:13.506Z,9.71
2022-11-05T16:42:22.383Z,9.67
2022-11-05T16:47:26.592Z,9.65
2022-11-05T16:52:29.580Z,9.62
2022-11-05T16:57:33.014Z,9.62
2022-11-05T17:02:35.796Z,9.61
2022-11-05T17:07:41.394Z,9.57
2022-11-05T17:12:45.350Z,9.55
2022-11-05T17:17:48.707Z,9.56
2022-11-05T17:22:51.386Z,9.59
2022-11-05T17:27:55.865Z,9.58
2022-11-05T17:32:59.215Z,9.58
2022-11-05T17:38:02.068Z,9.55
2022-11-05T17:43:05.728Z,9.50
2022-11-05T17:48:10.138Z,9.49
2022-11-05T17:53:14.041Z,9.47
2022-11-05T17:58:17.468Z,9.45
2022-11-05T18:03:20.146Z,9.46
2022-11-05T18:08:23.088Z,9.51
2022-11-05T18:13:25.810Z,9.53
2022-11-05T18:18:28.536Z,9.54
2022-11-05T18:23:31.288Z,9.54
2022-11-05T18:28:34.088Z,9.54
2022-11-05T18:33:36.889Z,9.55
2022-11-05T18:38:39.691Z,9.53
2022-11-05T18:43:42.763Z,9.48
2022-11-05T18:48:45.500Z,9.45
2022-11-05T18:53:48.203Z,9.43
2022-11-05T18:59:14.781Z,9.38
2022-11-05T19:04:16.414Z,9.33
2022-11-05T19:09:19.130Z,9.31
2022-11-05T19:14:21.794Z,9.24
2022-11-05T19:19:24.916Z,9.18
2022-11-05T19:24:28.081Z,9.18
2022-11-05T19:29:30.848Z,9.17
2022-11-05T19:34:33.545Z,9.13
2022-11-05T19:39:36.347Z,9.10
2022-11-05T19:44:39.045Z,9.09
2022-11-05T19:49:41.742Z,9.07
2022-11-05T19:54:46.081Z,9.05
2022-11-05T19:59:50.517Z,9.03
2022-11-05T20:04:53.325Z,9.02
2022-11-05T20:09:56.093Z,9.00
2022-11-05T20:14:58.777Z,8.95
2022-11-05T20:20:01.613Z,8.90
2022-11-05T20:25:04.915Z,8.88
2022-11-05T20:30:08.501Z,8.87
2022-11-05T20:35:11.334Z,8.82
2022-11-05T20:40:14.288Z,8.79
2022-11-05T20:45:17.044Z,8.79
2022-11-05T20:50:19.721Z,8.81
2022-11-05T20:55:22.465Z,8.78
2022-11-05T21:00:25.147Z,8.75
2022-11-05T21:05:32.722Z,8.74
2022-11-05T21:10:38.088Z,8.73
2022-11-05T21:15:49.240Z,8.72
2022-11-05T21:20:52.430Z,8.70
2022-11-05T21:25:55.794Z,8.68
2022-11-05T21:31:03.354Z,8.65
2022-11-05T21:36:09.316Z,8.62
2022-11-05T21:41:12.766Z,8.61
2022-11-05T21:46:15.464Z,8.58
2022-11-05T21:51:37.087Z,8.55
2022-11-05T21:56:58.580Z,8.48
2022-11-05T22:02:01.921Z,8.41
2022-11-05T22:07:06.298Z,8.37
2022-11-05T22:12:09.737Z,8.35
2022-11-05T22:17:13.750Z,8.30
2022-11-05T22:22:16.766Z,8.27
2022-11-05T22:27:23.843Z,8.25
2022-11-05T22:32:26.656Z,8.22
2022-11-05T22:37:29.352Z,8.17
2022-11-05T22:42:32.549Z,8.14
2022-11-05T22:47:35.675Z,8.13
2022-11-05T22:52:38.442Z,8.09
2022-11-05T22:57:41.178Z,8.00
2022-11-05T23:02:44.268Z,7.93
2022-11-05T23:08:19.647Z,7.87
2022-11-05T23:13:22.347Z,7.81
2022-11-05T23:18:43.682Z,7.76
2022-11-05T23:24:04.291Z,7.69
2022-11-05T23:29:06.978Z,7.64
2022-11-05T23:34:09.803Z,7.61
2022-11-05T23:39:12.604Z,7.58
2022-11-05T23:44:33.790Z,7.54
2022-11-05T23:49:36.536Z,7.50
2022-11-05T23:54:39.215Z,7.50
2022-11-05T23:59:41.919Z,7.50
